createdAt,value
2023-03-26T00:00:54.273Z,97675.47
2023-03-26T00:03:21.042Z,97673.75
2023-03-26T00:05:48.303Z,97672.91
2023-03-26T00:08:16.679Z,97672.03
2023-03-26T00:10:44.365Z,97688.63
2023-03-26T00:13:11.349Z,97691.28
2023-03-26T00:15:38.169Z,97686.94
2023-03-26T00:18:05.681Z,97684.34
2023-03-26T00:20:35.373Z,97691.34
2023-03-26T00:23:01.832Z,97678.22
2023-03-26T00:25:28.495Z,97682.66
2023-03-26T00:27:55.048Z,97689.69
2023-03-26T00:30:21.605Z,97677.41
2023-03-26T00:32:53.585Z,97680.88
2023-03-26T00:35:20.852Z,97661.56
2023-03-26T00:37:47.860Z,97666.81
2023-03-26T00:40:14.584Z,97674.69
2023-03-26T00:42:42.525Z,97662.41
2023-03-26T00:45:09.503Z,97672.91
2023-03-26T00:47:36.262Z,97675.53
2023-03-26T00:50:04.280Z,97673.75
2023-03-26T00:52:31.740Z,97672.91
2023-03-26T00:54:58.322Z,97676.41
2023-03-26T00:57:35.739Z,97681.69
2023-03-26T01:00:15.955Z,97688.72
2023-03-26T01:02:45.283Z,97692.28
2023-03-26T01:05:33.978Z,97680.03
2023-03-26T01:08:20.816Z,97686.19
2023-03-26T01:10:50.899Z,97678.31
2023-03-26T01:13:23.013Z,97671.28
2023-03-26T01:15:51.154Z,97670.38
2023-03-26T01:18:26.438Z,97673.91
2023-03-26T01:21:05.058Z,97676.56
2023-03-26T01:23:43.083Z,97679.16
2023-03-26T01:26:38.859Z,97673.84
2023-03-26T01:29:09.202Z,97685.28
2023-03-26T01:31:48.031Z,97686.16
2023-03-26T01:34:30.621Z,97676.50
2023-03-26T01:37:32.626Z,97687.03
2023-03-26T01:40:10.009Z,97688.75
2023-03-26T01:42:44.018Z,97684.31
2023-03-26T01:45:18.885Z,97682.56
2023-03-26T01:47:46.759Z,97687.84
2023-03-26T01:50:13.794Z,97688.75
2023-03-26T01:52:40.398Z,97690.47
2023-03-26T01:55:11.776Z,97687.88
2023-03-26T01:57:41.245Z,97694.00
2023-03-26T02:00:22.588Z,97686.09
2023-03-26T02:03:01.926Z,97691.34
2023-03-26T02:05:47.308Z,97697.50
2023-03-26T02:08:31.578Z,97692.25
2023-03-26T02:11:01.147Z,97694.88
2023-03-26T02:13:31.402Z,97698.38
2023-03-26T02:16:00.802Z,97700.13
2023-03-26T02:18:38.905Z,97687.84
2023-03-26T02:21:09.827Z,97696.63
2023-03-26T02:23:38.486Z,97693.09
2023-03-26T02:26:10.854Z,97686.97
2023-03-26T02:28:38.058Z,97685.28
2023-03-26T02:31:04.957Z,97691.41
2023-03-26T02:33:32.029Z,97683.50
2023-03-26T02:36:01.916Z,97693.19
2023-03-26T02:38:30.299Z,97673.91
2023-03-26T02:40:56.872Z,97681.75
2023-03-26T02:43:23.478Z,97688.78
2023-03-26T02:45:50.184Z,97687.94
2023-03-26T02:48:16.845Z,97689.66
2023-03-26T02:50:44.280Z,97687.00
2023-03-26T02:53:11.974Z,97683.50
2023-03-26T02:55:41.089Z,97682.63
2023-03-26T02:58:07.681Z,97691.47
2023-03-26T03:00:35.095Z,97690.63
2023-03-26T03:03:04.397Z,97688.91
2023-03-26T03:05:32.529Z,97681.84
2023-03-26T03:07:59.746Z,97689.78
2023-03-26T03:10:27.568Z,97685.31
2023-03-26T03:12:54.682Z,97691.50
2023-03-26T03:15:21.152Z,97681.91
2023-03-26T03:17:47.780Z,97684.53
2023-03-26T03:20:14.313Z,97687.16
2023-03-26T03:22:41.309Z,97683.66
2023-03-26T03:25:17.436Z,97678.41
2023-03-26T03:27:44.581Z,97670.50
2023-03-26T03:30:13.135Z,97676.63
2023-03-26T03:32:39.651Z,97669.63
2023-03-26T03:35:06.698Z,97667.00
2023-03-26T03:37:36.580Z,97666.09
2023-03-26T03:40:07.557Z,97668.72
2023-03-26T03:42:34.122Z,97665.19
2023-03-26T03:45:01.918Z,97662.53
2023-03-26T03:47:28.577Z,97667.81
2023-03-26T03:49:56.857Z,97669.56
2023-03-26T03:52:23.454Z,97668.66
2023-03-26T03:54:49.916Z,97675.66
2023-03-26T03:57:18.862Z,97667.78
2023-03-26T03:59:47.430Z,97680.03
2023-03-26T04:02:21.243Z,97673.03
2023-03-26T04:04:50.053Z,97670.47
2023-03-26T04:07:16.565Z,97667.00
2023-03-26T04:09:43.041Z,97667.88
2023-03-26T04:12:09.490Z,97671.38
2023-03-26T04:14:36.258Z,97671.38
2023-03-26T04:17:05.345Z,97672.22
2023-03-26T04:19:31.964Z,97666.06
2023-03-26T04:22:02.566Z,97671.38
2023-03-26T04:24:29.746Z,97669.63
2023-03-26T04:27:04.116Z,97659.09
2023-03-26T04:29:32.787Z,97658.22
2023-03-26T04:32:06.926Z,97647.66
2023-03-26T04:34:34.410Z,97659.09
2023-03-26T04:37:05.014Z,97653.81
2023-03-26T04:39:34.211Z,97661.72
2023-03-26T04:42:00.762Z,97655.53
2023-03-26T04:44:30.339Z,97661.66
2023-03-26T04:46:56.840Z,97661.66
2023-03-26T04:49:23.386Z,97653.78
2023-03-26T04:51:52.847Z,97660.81
2023-03-26T04:54:24.343Z,97650.25
2023-03-26T04:56:56.521Z,97639.75
2023-03-26T04:59:30.007Z,97647.63
2023-03-26T05:01:57.991Z,97648.50
2023-03-26T05:04:27.143Z,97640.59
2023-03-26T05:06:54.217Z,97638.81
2023-03-26T05:09:23.646Z,97629.19
2023-03-26T05:11:50.769Z,97637.97
2023-03-26T05:14:17.857Z,97632.72
2023-03-26T05:16:47.795Z,97636.22
2023-03-26T05:19:14.511Z,97637.09
2023-03-26T05:21:41.166Z,97633.63
2023-03-26T05:24:07.747Z,97631.88
2023-03-26T05:26:34.503Z,97624.84
2023-03-26T05:29:02.909Z,97624.81
2023-03-26T05:31:32.244Z,97621.31
2023-03-26T05:34:00.615Z,97627.47
2023-03-26T05:36:28.442Z,97631.81
2023-03-26T05:38:55.006Z,97632.72
2023-03-26T05:41:21.482Z,97623.91
2023-03-26T05:43:48.968Z,97626.53
2023-03-26T05:46:16.086Z,97620.38
2023-03-26T05:48:42.661Z,97630.88
2023-03-26T05:51:09.730Z,97622.09
2023-03-26T05:53:36.374Z,97625.56
2023-03-26T05:56:04.272Z,97625.50
2023-03-26T05:58:36.383Z,97619.25
2023-03-26T06:01:06.137Z,97612.25
2023-03-26T06:03:33.882Z,97607.94
2023-03-26T06:06:00.604Z,97614.91
2023-03-26T06:08:27.297Z,97606.94
2023-03-26T06:11:04.545Z,97607.75
2023-03-26T06:13:31.193Z,97604.19
2023-03-26T06:16:00.855Z,97597.16
2023-03-26T06:18:27.373Z,97596.16
2023-03-26T06:20:54.643Z,97598.75
2023-03-26T06:23:22.773Z,97599.50
2023-03-26T06:25:49.499Z,97588.06
2023-03-26T06:28:16.259Z,97596.00
2023-03-26T06:30:43.050Z,97596.88
2023-03-26T06:33:13.314Z,97600.41
2023-03-26T06:35:39.831Z,97604.81
2023-03-26T06:38:07.626Z,97600.31
2023-03-26T06:40:34.519Z,97603.75
2023-03-26T06:43:07.667Z,97598.38
2023-03-26T06:45:36.345Z,97587.78
2023-03-26T06:48:02.948Z,97594.66
2023-03-26T06:50:29.499Z,97601.53
2023-03-26T06:52:56.327Z,97591.69
2023-03-26T06:55:23.645Z,97596.16
2023-03-26T06:57:54.794Z,97588.28
2023-03-26T07:00:21.797Z,97596.06
2023-03-26T07:02:48.333Z,97600.44
2023-03-26T07:05:14.886Z,97603.03
2023-03-26T07:07:46.122Z,97602.31
2023-03-26T07:10:15.107Z,97599.75
2023-03-26T07:12:42.540Z,97592.72
2023-03-26T07:15:10.169Z,97591.91
2023-03-26T07:17:36.947Z,97590.19
2023-03-26T07:20:04.828Z,97592.84
2023-03-26T07:22:31.597Z,97588.47
2023-03-26T07:24:58.318Z,97585.00
2023-03-26T07:27:46.112Z,97574.44
2023-03-26T07:30:17.988Z,97579.66
2023-03-26T07:32:53.753Z,97580.50
2023-03-26T07:35:30.301Z,97582.19
2023-03-26T07:38:08.920Z,97576.97
2023-03-26T07:40:50.373Z,97575.25
2023-03-26T07:43:49.224Z,97578.78
2023-03-26T07:46:16.910Z,97580.53
2023-03-26T07:48:50.062Z,97584.03
2023-03-26T07:51:18.731Z,97581.47
2023-03-26T07:53:45.751Z,97575.31
2023-03-26T07:56:24.765Z,97575.28
2023-03-26T07:59:03.470Z,97569.97
2023-03-26T08:02:12.820Z,97567.19
2023-03-26T08:05:01.289Z,97561.91
2023-03-26T08:07:45.045Z,97560.94
2023-03-26T08:10:19.157Z,97562.53
2023-03-26T08:13:10.748Z,97557.09
2023-03-26T08:15:54.493Z,97554.38
2023-03-26T08:18:35.129Z,97562.22
2023-03-26T08:21:20.629Z,97557.63
2023-03-26T08:24:06.297Z,97542.94
2023-03-26T08:27:00.164Z,97539.69
2023-03-26T08:29:39.319Z,97542.69
2023-03-26T08:32:14.044Z,97547.47
2023-03-26T08:34:41.013Z,97545.31
2023-03-26T08:37:07.851Z,97556.41
2023-03-26T08:39:34.353Z,97550.72
2023-03-26T08:42:19.482Z,97550.81
2023-03-26T08:45:16.733Z,97551.75
2023-03-26T08:48:15.996Z,97555.28
2023-03-26T08:51:19.589Z,97554.47
2023-03-26T08:54:10.077Z,97546.47
2023-03-26T08:56:44.263Z,97544.66
2023-03-26T08:59:29.125Z,97543.75
2023-03-26T09:02:31.399Z,97537.50
2023-03-26T09:05:19.047Z,97539.31
2023-03-26T09:08:14.791Z,97544.75
2023-03-26T09:10:54.859Z,97542.56
2023-03-26T09:13:58.809Z,97542.25
2023-03-26T09:16:51.080Z,97540.44
2023-03-26T09:19:20.470Z,97531.06
2023-03-26T09:22:07.546Z,97535.16
2023-03-26T09:24:36.807Z,97523.97
2023-03-26T09:27:19.004Z,97535.13
2023-03-26T09:29:51.707Z,97531.81
2023-03-26T09:32:54.452Z,97529.28
2023-03-26T09:35:46.564Z,97520.72
2023-03-26T09:38:37.981Z,97522.75
2023-03-26T09:41:13.511Z,97522.91
2023-03-26T09:44:17.867Z,97511.06
2023-03-26T09:47:09.161Z,97512.56
2023-03-26T09:50:17.742Z,97510.91
2023-03-26T09:53:02.672Z,97507.34
2023-03-26T09:55:59.823Z,97507.69
2023-03-26T09:58:48.788Z,97502.63
2023-03-26T10:01:29.189Z,97498.31
2023-03-26T10:04:17.186Z,97495.94
2023-03-26T10:06:57.941Z,97493.41
2023-03-26T10:09:52.251Z,97495.28
2023-03-26T10:12:21.832Z,97487.19
2023-03-26T10:14:57.653Z,97491.06
2023-03-26T10:17:43.074Z,97495.75
2023-03-26T10:20:32.958Z,97490.00
2023-03-26T10:23:18.602Z,97484.63
2023-03-26T10:26:06.011Z,97485.09
2023-03-26T10:28:58.407Z,97479.34
2023-03-26T10:31:52.584Z,97475.28
2023-03-26T10:34:29.284Z,97482.44
2023-03-26T10:37:27.909Z,97490.66
2023-03-26T10:40:09.478Z,97495.16
2023-03-26T10:42:40.675Z,97496.94
2023-03-26T10:45:27.149Z,97495.22
2023-03-26T10:48:15.488Z,97491.94
2023-03-26T10:50:54.633Z,97496.53
2023-03-26T10:53:47.120Z,97498.59
2023-03-26T10:56:21.453Z,97495.13
2023-03-26T10:58:49.952Z,97499.50
2023-03-26T11:01:41.655Z,97500.41
2023-03-26T11:04:27.984Z,97499.59
2023-03-26T11:07:19.197Z,97500.63
2023-03-26T11:10:03.259Z,97500.81
2023-03-26T11:12:48.722Z,97503.44
2023-03-26T11:15:24.099Z,97499.97
2023-03-26T11:18:33.466Z,97501.66
2023-03-26T11:21:20.970Z,97495.50
2023-03-26T11:24:06.455Z,97502.56
2023-03-26T11:26:52.885Z,97503.34
2023-03-26T11:29:41.046Z,97496.25
2023-03-26T11:32:23.843Z,97495.16
2023-03-26T11:34:59.578Z,97498.56
2023-03-26T11:37:37.579Z,97493.16
2023-03-26T11:40:11.622Z,97498.38
2023-03-26T11:42:38.848Z,97492.13
2023-03-26T11:45:13.509Z,97497.38
2023-03-26T11:47:51.903Z,97485.03
2023-03-26T11:50:28.498Z,97495.63
2023-03-26T11:53:03.110Z,97493.88
2023-03-26T11:55:31.417Z,97485.22
2023-03-26T11:58:00.076Z,97482.53
2023-03-26T12:00:28.024Z,97482.47
2023-03-26T12:02:59.103Z,97482.25
2023-03-26T12:05:31.295Z,97480.44
2023-03-26T12:08:03.397Z,97476.94
2023-03-26T12:10:38.821Z,97478.00
2023-03-26T12:13:36.512Z,97484.25
2023-03-26T12:16:22.018Z,97476.25
2023-03-26T12:19:19.647Z,97469.19
2023-03-26T12:21:51.623Z,97474.56
2023-03-26T12:24:29.561Z,97477.97
2023-03-26T12:27:20.697Z,97471.00
2023-03-26T12:30:03.852Z,97474.47
2023-03-26T12:32:45.307Z,97467.59
2023-03-26T12:35:18.929Z,97470.28
2023-03-26T12:37:46.461Z,97467.94
2023-03-26T12:40:22.353Z,97469.59
2023-03-26T12:44:48.986Z,97467.81
2023-03-26T12:45:44.775Z,97469.66
2023-03-26T12:48:17.185Z,97474.13
2023-03-26T12:50:57.054Z,97464.44
2023-03-26T12:53:32.816Z,97469.81
2023-03-26T12:56:19.945Z,97478.63
2023-03-26T12:58:56.500Z,97477.91
2023-03-26T13:01:23.057Z,97473.50
2023-03-26T13:04:03.563Z,97484.97
2023-03-26T13:06:58.939Z,97480.66
2023-03-26T13:10:16.858Z,97481.84
2023-03-26T13:12:52.089Z,97479.34
2023-03-26T13:15:22.028Z,97473.31
2023-03-26T13:18:08.549Z,97466.19
2023-03-26T13:21:00.792Z,97466.94
2023-03-26T13:23:42.601Z,97464.94
2023-03-26T13:26:23.631Z,97465.75
2023-03-26T13:29:32.589Z,97463.91
2023-03-26T13:32:21.088Z,97454.31
2023-03-26T13:35:24.385Z,97448.03
2023-03-26T13:38:00.462Z,97455.13
2023-03-26T13:40:43.184Z,97450.84
2023-03-26T13:43:29.019Z,97444.84
2023-03-26T13:45:58.524Z,97436.91
2023-03-26T13:48:46.469Z,97436.84
2023-03-26T13:51:27.163Z,97442.13
2023-03-26T13:54:17.687Z,97437.88
2023-03-26T13:56:52.653Z,97432.63
2023-03-26T13:59:31.879Z,97437.63
2023-03-26T14:02:06.189Z,97437.63
2023-03-26T14:04:47.530Z,97427.84
2023-03-26T14:07:25.436Z,97429.63
2023-03-26T14:10:07.270Z,97434.91
2023-03-26T14:12:55.863Z,97433.19
2023-03-26T14:15:37.494Z,97427.97
2023-03-26T14:18:28.713Z,97422.63
2023-03-26T14:21:46.482Z,97426.09
2023-03-26T14:24:43.137Z,97422.63
2023-03-26T14:27:38.507Z,97427.06
2023-03-26T14:30:22.549Z,97429.69
2023-03-26T14:32:58.551Z,97422.75
2023-03-26T14:35:46.979Z,97427.09
2023-03-26T14:38:35.146Z,97425.28
2023-03-26T14:41:23.081Z,97420.94
2023-03-26T14:44:17.376Z,97417.38
2023-03-26T14:46:59.034Z,97420.00
2023-03-26T14:49:31.909Z,97420.03
2023-03-26T14:52:13.515Z,97414.75
2023-03-26T14:54:43.928Z,97422.75
2023-03-26T14:57:38.354Z,97417.47
2023-03-26T15:00:23.512Z,97424.44
2023-03-26T15:03:14.778Z,97413.31
2023-03-26T15:05:58.907Z,97411.66
2023-03-26T15:08:33.684Z,97417.78
2023-03-26T15:11:33.162Z,97419.53
2023-03-26T15:14:14.689Z,97417.84
2023-03-26T15:17:02.689Z,97414.50
2023-03-26T15:19:43.426Z,97417.81
2023-03-26T15:22:28.144Z,97420.47
2023-03-26T15:24:57.727Z,97423.09
2023-03-26T15:27:39.442Z,97422.22
2023-03-26T15:30:22.898Z,97419.50
2023-03-26T15:33:14.546Z,97420.34
2023-03-26T15:35:47.254Z,97418.50
2023-03-26T15:38:33.955Z,97421.16
2023-03-26T15:41:17.621Z,97417.66
2023-03-26T15:44:24.015Z,97410.91
2023-03-26T15:47:11.186Z,97417.97
2023-03-26T15:50:08.244Z,97417.91
2023-03-26T15:53:26.885Z,97421.38
2023-03-26T15:56:06.706Z,97423.16
2023-03-26T15:58:45.791Z,97419.63
2023-03-26T16:01:48.069Z,97419.59
2023-03-26T16:04:50.486Z,97424.00
2023-03-26T16:07:21.854Z,97423.09
2023-03-26T16:10:04.551Z,97416.03
2023-03-26T16:12:54.534Z,97423.22
2023-03-26T16:15:25.749Z,97418.91
2023-03-26T16:18:11.563Z,97416.28
2023-03-26T16:21:30.405Z,97426.75
2023-03-26T16:24:08.183Z,97426.88
2023-03-26T16:26:43.686Z,97426.94
2023-03-26T16:29:16.506Z,97426.97
2023-03-26T16:32:26.057Z,97433.13
2023-03-26T16:35:03.436Z,97427.84
2023-03-26T16:37:36.348Z,97433.13
2023-03-26T16:40:18.624Z,97433.03
2023-03-26T16:43:03.303Z,97425.09
2023-03-26T16:45:34.875Z,97431.22
2023-03-26T16:48:32.299Z,97433.06
2023-03-26T16:51:17.108Z,97438.38
2023-03-26T16:54:22.679Z,97439.28
2023-03-26T16:57:06.748Z,97448.19
2023-03-26T17:00:05.321Z,97441.97
2023-03-26T17:02:45.799Z,97449.03
2023-03-26T17:05:20.957Z,97449.03
2023-03-26T17:07:57.616Z,97447.22
2023-03-26T17:10:35.702Z,97452.59
2023-03-26T17:13:11.502Z,97453.50
2023-03-26T17:15:55.931Z,97457.13
2023-03-26T17:18:27.548Z,97460.66
2023-03-26T17:20:59.786Z,97465.03
2023-03-26T17:23:32.408Z,97469.47
2023-03-26T17:26:21.492Z,97476.47
2023-03-26T17:29:01.657Z,97480.06
2023-03-26T17:31:40.723Z,97478.31
2023-03-26T17:34:52.262Z,97480.94
2023-03-26T17:37:22.037Z,97493.25
2023-03-26T17:39:51.482Z,97487.16
2023-03-26T17:42:36.049Z,97497.72
2023-03-26T17:45:17.622Z,97493.38
2023-03-26T17:47:50.411Z,97495.97
2023-03-26T17:50:30.484Z,97509.19
2023-03-26T17:53:06.067Z,97505.69
2023-03-26T17:55:37.695Z,97507.41
2023-03-26T17:58:16.446Z,97517.13
2023-03-26T18:00:46.943Z,97520.63
2023-03-26T18:03:50.609Z,97522.34
2023-03-26T18:06:24.611Z,97524.97
2023-03-26T18:09:12.236Z,97517.09
2023-03-26T18:12:06.305Z,97531.09
2023-03-26T18:15:06.296Z,97533.75
2023-03-26T18:17:43.909Z,97546.06
2023-03-26T18:20:29.077Z,97547.88
2023-03-26T18:22:55.907Z,97548.75
2023-03-26T18:25:30.338Z,97550.53
2023-03-26T18:27:57.671Z,97550.53
2023-03-26T18:30:25.925Z,97559.31
2023-03-26T18:32:52.695Z,97567.19
2023-03-26T18:35:23.222Z,97565.44
2023-03-26T18:37:56.829Z,97563.63
2023-03-26T18:40:24.915Z,97562.78
2023-03-26T18:42:55.046Z,97567.19
2023-03-26T18:45:30.476Z,97568.06
2023-03-26T18:48:00.466Z,97577.72
2023-03-26T18:50:30.994Z,97575.97
2023-03-26T18:53:00.411Z,97574.22
2023-03-26T18:55:32.582Z,97578.66
2023-03-26T18:57:59.227Z,97576.06
2023-03-26T19:00:30.449Z,97581.38
2023-03-26T19:03:08.226Z,97584.06
2023-03-26T19:05:36.485Z,97587.56
2023-03-26T19:08:06.259Z,97589.38
2023-03-26T19:10:33.539Z,97588.53
2023-03-26T19:13:02.322Z,97589.47
2023-03-26T19:15:31.903Z,97593.88
2023-03-26T19:18:07.153Z,97596.50
2023-03-26T19:20:43.364Z,97601.81
2023-03-26T19:23:14.777Z,97600.03
2023-03-26T19:25:47.578Z,97606.16
2023-03-26T19:28:21.871Z,97609.69
2023-03-26T19:30:57.532Z,97609.72
2023-03-26T19:33:40.459Z,97613.25
2023-03-26T19:36:12.882Z,97617.63
2023-03-26T19:38:44.878Z,97612.44
2023-03-26T19:41:25.080Z,97622.06
2023-03-26T19:43:55.835Z,97625.59
2023-03-26T19:46:23.268Z,97629.09
2023-03-26T19:48:53.314Z,97627.34
2023-03-26T19:51:30.841Z,97625.59
2023-03-26T19:54:03.834Z,97624.72
2023-03-26T19:56:31.668Z,97631.75
2023-03-26T19:58:59.175Z,97632.59
2023-03-26T20:01:28.509Z,97633.47
2023-03-26T20:03:58.823Z,97642.25
2023-03-26T20:06:42.400Z,97646.63
2023-03-26T20:09:12.131Z,97644.91
2023-03-26T20:11:41.741Z,97650.19
2023-03-26T20:14:19.620Z,97657.19
2023-03-26T20:16:46.500Z,97651.06
2023-03-26T20:19:19.480Z,97657.22
2023-03-26T20:21:48.978Z,97658.13
2023-03-26T20:24:17.480Z,97659.88
2023-03-26T20:26:45.597Z,97673.91
2023-03-26T20:29:15.900Z,97678.28
2023-03-26T20:31:42.736Z,97673.06
2023-03-26T20:34:18.978Z,97675.69
2023-03-26T20:36:46.919Z,97679.19
2023-03-26T20:39:13.985Z,97677.44
2023-03-26T20:41:45.392Z,97684.47
2023-03-26T20:44:15.413Z,97688.88
2023-03-26T20:46:46.030Z,97694.09
2023-03-26T20:49:14.976Z,97696.75
2023-03-26T20:51:42.048Z,97698.53
2023-03-26T20:54:30.283Z,97703.78
2023-03-26T20:56:58.060Z,97710.75
2023-03-26T20:59:27.408Z,97711.66
2023-03-26T21:01:56.535Z,97716.03
2023-03-26T21:04:24.804Z,97712.53
2023-03-26T21:06:53.414Z,97718.66
2023-03-26T21:09:25.283Z,97716.94
2023-03-26T21:12:05.048Z,97716.91
2023-03-26T21:14:41.346Z,97724.81
2023-03-26T21:17:15.652Z,97735.28
2023-03-26T21:19:42.776Z,97736.16
2023-03-26T21:22:27.178Z,97738.78
2023-03-26T21:25:20.725Z,97745.75
2023-03-26T21:27:50.797Z,97758.00
2023-03-26T21:30:17.643Z,97757.16
2023-03-26T21:32:45.515Z,97766.78
2023-03-26T21:35:20.784Z,97770.28
2023-03-26T21:37:50.818Z,97769.41
2023-03-26T21:40:18.838Z,97772.03
2023-03-26T21:42:55.767Z,97774.63
2023-03-26T21:45:23.024Z,97773.78
2023-03-26T21:47:50.270Z,97772.00
2023-03-26T21:50:20.636Z,97785.13
2023-03-26T21:52:47.718Z,97781.63
2023-03-26T21:55:16.098Z,97787.72
2023-03-26T21:57:45.360Z,97788.59
2023-03-26T22:00:23.742Z,97791.22
2023-03-26T22:03:06.846Z,97796.47
2023-03-26T22:05:59.466Z,97810.44
2023-03-26T22:08:38.649Z,97810.44
2023-03-26T22:11:15.440Z,97819.19
2023-03-26T22:13:42.318Z,97822.69
2023-03-26T22:16:10.642Z,97822.69
2023-03-26T22:18:43.789Z,97827.94
2023-03-26T22:21:10.323Z,97837.56
2023-03-26T22:23:38.202Z,97835.81
2023-03-26T22:26:05.901Z,97841.88
2023-03-26T22:28:35.176Z,97841.00
2023-03-26T22:31:08.982Z,97851.44
2023-03-26T22:33:40.009Z,97847.06
2023-03-26T22:36:22.770Z,97851.44
2023-03-26T22:38:55.082Z,97849.69
2023-03-26T22:41:22.699Z,97855.78
2023-03-26T22:43:52.064Z,97852.25
2023-03-26T22:46:19.158Z,97857.47
2023-03-26T22:48:48.209Z,97863.56
2023-03-26T22:51:22.406Z,97867.94
2023-03-26T22:53:52.360Z,97867.88
2023-03-26T22:56:18.841Z,97867.88
2023-03-26T22:58:48.913Z,97874.91
2023-03-26T23:01:21.750Z,97870.50
2023-03-26T23:03:51.276Z,97880.16
2023-03-26T23:06:18.003Z,97874.91
2023-03-26T23:08:44.780Z,97884.47
2023-03-26T23:11:13.494Z,97888.84
2023-03-26T23:13:41.267Z,97895.84
2023-03-26T23:16:10.067Z,97904.56
2023-03-26T23:18:37.846Z,97899.31
2023-03-26T23:21:05.963Z,97909.81
2023-03-26T23:23:43.694Z,97909.81
2023-03-26T23:26:10.810Z,97910.66
2023-03-26T23:28:38.209Z,97925.53
2023-03-26T23:31:06.693Z,97925.53
2023-03-26T23:33:35.502Z,97925.50
2023-03-26T23:36:08.778Z,97927.19
2023-03-26T23:38:43.181Z,97933.28
2023-03-26T23:41:14.836Z,97933.28
2023-03-26T23:43:54.610Z,97940.25
2023-03-26T23:46:35.816Z,97946.38
2023-03-26T23:49:06.551Z,97943.72
2023-03-26T23:51:33.293Z,97949.00
2023-03-26T23:54:00.347Z,97956.78
2023-03-26T23:56:29.865Z,97961.16
2023-03-26T23:59:06.293Z,97966.38
